Airfield :
LOGIN :

Register | Disclaimer

   EN    FR    IT 

 










Legend :    VFR   Marginal VFR   IFR   Intensive IFR   Very Intensive IFR
Visi :
Ceiling :
>= 8 km
>= 3000ft
5 to 8 km
1000 to 3000 ft
1500m to 5 km
500 to 1000 ft
800 to 1500m
200 to 500 ft
< 800m
< 200 ft
Symbols :   Thunderstorms  Fog  Heavy snow  Heavy precipitations  Wind > 20 kt
SIGMETs :     Misc.  Thunderstorms  Icing  Turbulence  Mountain Waves  Volcanic Ashes






- Airport Elevation : 681 ft
- IATA code : LBA


EGNM - Leeds Bradford

CURRENT METAR :
  • 300920Z 16007KT 9999 FEW011 10/09 Q1001

EXPIRED METARs :
  • 300850Z 16006KT 9999 FEW011 09/08 Q1002
  • 300820Z 15005KT 9999 FEW009 08/07 Q1003
  • 300750Z 16005KT CAVOK 08/07 Q1003
  • 300720Z 16006KT CAVOK 08/07 Q1004

TAF TAF EGNM
Valid from the 30 at 06:00 until the 01 at 06:00 UTC


300459Z 3006/0106 19005KT 9999 SCT040
BECMG 3006/3009 18015KT
PROB30 3006/3008 0300 FG VV///
BECMG 3009/3012 20018G35KT
TEMPO 3010/3017 6000 RA
PROB30
TEMPO 3011/3017 4000 +RA BKN009
BECMG 3016/3019 25009KT
TEMPO 3017/0106 6000 SHRA
PROB30
TEMPO 3019/0106 27015G25KT
ATIS : +44 113 250 9696 (x2489)



MET'MAP, your aeronautical weather chart ! - Copyright ORBIFLY December 2007 - Disclaimer

ORBIFLY MET'MAP TEAM :

Programming & Development : Alexandra Zaïnal
Original concept : Baudouin d'Aumeries
Technical & hardware support : Manuel Goepfert
Assistance : Marc-Olivier Méhu




SOURCES & CREDITS :

   NOAA